Time,TemperatureF,DewpointF,PressureIn,WindDirection,WindDirectionDegrees,WindSpeedMPH,WindSpeedGustMPH,Humidity,HourlyPrecipIn,Conditions,Clouds,dailyrainin,SoftwareType,DateUTC
2013-01-22 00:01:00,24.4,11.0,29.80,WNW,287,3.0,8.0,57,0.00,,,0.00,weatherlink.com 1.10,2013-01-22 05:01:00,
2013-01-22 00:16:00,24.0,11.0,29.80,West,278,2.0,10.0,57,0.00,,,0.00,weatherlink.com 1.10,2013-01-22 05:16:00,
2013-01-22 00:31:00,23.8,10.0,29.80,West,263,5.0,11.0,57,0.00,,,0.00,weatherlink.com 1.10,2013-01-22 05:31:00,
2013-01-22 00:46:00,23.7,11.0,29.80,West,281,4.0,21.0,58,0.00,,,0.00,weatherlink.com 1.10,2013-01-22 05:46:00,
2013-01-22 01:01:00,23.6,11.0,29.81,WSW,238,5.0,12.0,59,0.00,,,0.00,weatherlink.com 1.10,2013-01-22 06:01:00,
2013-01-22 01:16:00,23.5,11.0,29.81,South,180,0.0,8.0,60,0.00,,,0.00,weatherlink.com 1.10,2013-01-22 06:16:00,
2013-01-22 01:31:00,23.3,10.0,29.82,WSW,240,4.0,12.0,58,0.00,,,0.00,weatherlink.com 1.10,2013-01-22 06:31:00,
2013-01-22 01:46:00,23.1,10.0,29.82,West,262,7.0,9.0,57,0.00,,,0.00,weatherlink.com 1.10,2013-01-22 06:46:00,
2013-01-22 02:01:00,22.5,8.0,29.83,West,274,3.0,14.0,55,0.00,,,0.00,weatherlink.com 1.10,2013-01-22 07:01:00,
2013-01-22 02:16:00,22.0,8.0,29.83,West,265,6.0,10.0,54,0.00,,,0.00,weatherlink.com 1.10,2013-01-22 07:16:00,
2013-01-22 02:31:00,21.6,6.0,29.84,NW,320,5.0,17.0,52,0.00,,,0.00,weatherlink.com 1.10,2013-01-22 07:31:00,
2013-01-22 02:46:00,20.9,5.0,29.84,SW,226,5.0,11.0,51,0.00,,,0.00,weatherlink.com 1.10,2013-01-22 07:46:00,
2013-01-22 03:02:00,-999.0,-99.9,29.84,North,-999,-999.0,-999.0,-999,0.00,,,0.00,weatherlink.com 1.10,2013-01-22 08:02:00,
2013-01-22 03:17:00,-999.0,-99.9,29.84,North,-999,-999.0,-999.0,-999,0.00,,,0.00,weatherlink.com 1.10,2013-01-22 08:17:00,
2013-01-22 03:32:00,-999.0,-99.9,29.85,North,-999,-999.0,-999.0,-999,0.00,,,0.00,weatherlink.com 1.10,2013-01-22 08:32:00,
2013-01-22 03:47:00,-999.0,-99.9,29.85,North,-999,-999.0,-999.0,-999,0.00,,,0.00,weatherlink.com 1.10,2013-01-22 08:47:00,
2013-01-22 04:02:00,-999.0,-99.9,29.86,North,-999,-999.0,-999.0,-999,0.00,,,0.00,weatherlink.com 1.10,2013-01-22 09:02:00,
2013-01-22 04:17:00,-999.0,-99.9,29.87,North,-999,-999.0,-999.0,-999,0.00,,,0.00,weatherlink.com 1.10,2013-01-22 09:17:00,
2013-01-22 04:32:00,-999.0,-99.9,29.88,North,-999,-999.0,-999.0,-999,0.00,,,0.00,weatherlink.com 1.10,2013-01-22 09:32:00,
2013-01-22 04:47:00,-999.0,-99.9,29.89,North,-999,-999.0,-999.0,-999,0.00,,,0.00,weatherlink.com 1.10,2013-01-22 09:47:00,
2013-01-22 05:02:00,-999.0,-99.9,29.90,North,-999,-999.0,-999.0,-999,0.00,,,0.00,weatherlink.com 1.10,2013-01-22 10:02:00,
2013-01-22 05:17:00,-999.0,-99.9,29.91,North,-999,-999.0,-999.0,-999,0.00,,,0.00,weatherlink.com 1.10,2013-01-22 10:17:00,
2013-01-22 05:32:00,-999.0,-99.9,29.91,North,-999,-999.0,-999.0,-999,0.00,,,0.00,weatherlink.com 1.10,2013-01-22 10:32:00,
2013-01-22 05:47:00,-999.0,-99.9,29.92,North,-999,-999.0,-999.0,-999,0.00,,,0.00,weatherlink.com 1.10,2013-01-22 10:47:00,
2013-01-22 06:02:00,-999.0,-99.9,29.92,North,-999,-999.0,-999.0,-999,0.00,,,0.00,weatherlink.com 1.10,2013-01-22 11:02:00,
2013-01-22 06:17:00,-999.0,-99.9,29.93,North,-999,-999.0,-999.0,-999,0.00,,,0.00,weatherlink.com 1.10,2013-01-22 11:17:00,
2013-01-22 06:33:00,-999.0,-99.9,29.94,North,-999,-999.0,-999.0,-999,0.00,,,0.00,weatherlink.com 1.10,2013-01-22 11:33:00,
2013-01-22 06:48:00,-999.0,-99.9,29.94,North,-999,-999.0,-999.0,-999,0.00,,,0.00,weatherlink.com 1.10,2013-01-22 11:48:00,
2013-01-22 07:03:00,-999.0,-99.9,29.95,North,-999,-999.0,-999.0,-999,0.00,,,0.00,weatherlink.com 1.10,2013-01-22 12:03:00,
2013-01-22 07:18:00,-999.0,-99.9,29.95,North,-999,-999.0,-999.0,-999,0.00,,,0.00,weatherlink.com 1.10,2013-01-22 12:18:00,
2013-01-22 07:33:00,-999.0,-99.9,29.96,North,-999,-999.0,-999.0,-999,0.00,,,0.00,weatherlink.com 1.10,2013-01-22 12:33:00,
2013-01-22 07:48:00,-999.0,-99.9,29.96,North,-999,-999.0,-999.0,-999,0.00,,,0.00,weatherlink.com 1.10,2013-01-22 12:48:00,
2013-01-22 08:03:00,-999.0,-99.9,29.97,North,-999,-999.0,-999.0,-999,0.00,,,0.00,weatherlink.com 1.10,2013-01-22 13:03:00,
2013-01-22 08:18:00,17.9,4.0,29.97,SW,231,4.0,15.0,55,0.00,,,0.00,weatherlink.com 1.10,2013-01-22 13:18:00,
2013-01-22 08:33:00,18.5,4.0,29.99,SW,233,1.0,8.0,54,0.00,,,0.00,weatherlink.com 1.10,2013-01-22 13:33:00,
2013-01-22 08:48:00,18.3,4.0,29.99,West,261,6.0,21.0,54,0.00,,,0.00,weatherlink.com 1.10,2013-01-22 13:48:00,
2013-01-22 09:03:00,18.0,3.0,30.00,South,169,4.0,13.0,51,0.00,,,0.00,weatherlink.com 1.10,2013-01-22 14:03:00,
2013-01-22 09:18:00,18.7,3.0,30.01,WSW,249,3.0,14.0,51,0.00,,,0.00,weatherlink.com 1.10,2013-01-22 14:18:00,
2013-01-22 09:33:00,19.0,3.0,30.01,West,281,4.0,10.0,50,0.00,,,0.00,weatherlink.com 1.10,2013-01-22 14:33:00,
2013-01-22 09:48:00,18.8,2.0,30.02,SW,232,5.0,13.0,49,0.00,,,0.00,weatherlink.com 1.10,2013-01-22 14:48:00,
2013-01-22 10:03:00,19.4,0.0,30.02,SSW,203,7.0,12.0,43,0.00,,,0.00,weatherlink.com 1.10,2013-01-22 15:03:00,
2013-01-22 10:18:00,19.5,0.0,30.02,West,267,6.0,20.0,42,0.00,,,0.00,weatherlink.com 1.10,2013-01-22 15:18:00,
2013-01-22 10:33:00,19.7,-1.0,30.02,West,264,12.0,16.0,41,0.00,,,0.00,weatherlink.com 1.10,2013-01-22 15:33:00,
2013-01-22 10:48:00,19.3,-2.0,30.02,West,263,1.0,17.0,40,0.00,,,0.00,weatherlink.com 1.10,2013-01-22 15:48:00,
2013-01-22 11:03:00,19.5,-2.0,30.02,WSW,249,10.0,14.0,38,0.00,,,0.00,weatherlink.com 1.10,2013-01-22 16:03:00,
2013-01-22 11:19:00,19.2,-3.0,30.02,WSW,256,8.0,18.0,37,0.00,,,0.00,weatherlink.com 1.10,2013-01-22 16:19:00,
2013-01-22 11:34:00,18.0,-3.0,30.01,SW,224,11.0,16.0,39,0.00,,,0.00,weatherlink.com 1.10,2013-01-22 16:34:00,
2013-01-22 11:49:00,18.7,-2.0,30.01,SSW,195,3.0,17.0,40,0.00,,,0.00,weatherlink.com 1.10,2013-01-22 16:49:00,
2013-01-22 12:04:00,18.6,-3.0,30.00,West,266,11.0,16.0,39,0.00,,,0.00,weatherlink.com 1.10,2013-01-22 17:04:00,
2013-01-22 12:19:00,18.9,-3.0,30.00,SSW,205,6.0,18.0,38,0.00,,,0.00,weatherlink.com 1.10,2013-01-22 17:19:00,
2013-01-22 12:34:00,19.2,-3.0,29.99,SSE,155,7.0,19.0,37,0.00,,,0.00,weatherlink.com 1.10,2013-01-22 17:34:00,
2013-01-22 12:49:00,19.0,-4.0,29.99,WSW,240,8.0,19.0,36,0.00,,,0.00,weatherlink.com 1.10,2013-01-22 17:49:00,
2013-01-22 13:04:00,18.3,-4.0,29.99,WSW,243,7.0,15.0,38,0.00,,,0.00,weatherlink.com 1.10,2013-01-22 18:04:00,
2013-01-22 13:19:00,18.7,-4.0,29.99,WNW,287,9.0,15.0,37,0.00,,,0.00,weatherlink.com 1.10,2013-01-22 18:19:00,
2013-01-22 13:34:00,17.9,-3.0,29.99,West,267,4.0,14.0,40,0.00,,,0.00,weatherlink.com 1.10,2013-01-22 18:34:00,
2013-01-22 13:49:00,19.1,-1.0,29.99,WSW,256,8.0,15.0,41,0.00,,,0.00,weatherlink.com 1.10,2013-01-22 18:49:00,
2013-01-22 14:04:00,19.1,-3.0,30.00,West,273,4.0,16.0,37,0.00,,,0.00,weatherlink.com 1.10,2013-01-22 19:04:00,
2013-01-22 14:19:00,18.9,-4.0,30.00,SW,225,2.0,12.0,37,0.00,,,0.00,weatherlink.com 1.10,2013-01-22 19:19:00,
2013-01-22 14:35:00,18.6,-4.0,30.00,SSW,212,3.0,14.0,37,0.00,,,0.00,weatherlink.com 1.10,2013-01-22 19:35:00,
2013-01-22 14:50:00,18.2,-4.0,30.00,West,271,4.0,17.0,37,0.00,,,0.00,weatherlink.com 1.10,2013-01-22 19:50:00,
2013-01-22 15:05:00,19.2,-3.0,30.01,West,281,9.0,13.0,37,0.00,,,0.00,weatherlink.com 1.10,2013-01-22 20:05:00,
2013-01-22 15:20:00,18.2,-4.0,30.02,West,281,6.0,12.0,38,0.00,,,0.00,weatherlink.com 1.10,2013-01-22 20:20:00,
2013-01-22 15:35:00,18.2,-2.0,30.02,West,281,11.0,16.0,41,0.00,,,0.00,weatherlink.com 1.10,2013-01-22 20:35:00,
2013-01-22 15:50:00,17.8,-3.0,30.03,West,278,8.0,15.0,40,0.00,,,0.00,weatherlink.com 1.10,2013-01-22 20:50:00,
2013-01-22 16:05:00,17.7,-4.0,30.03,NNE,20,2.0,17.0,39,0.00,,,0.00,weatherlink.com 1.10,2013-01-22 21:05:00,
2013-01-22 16:20:00,17.6,-4.0,30.04,West,266,7.0,15.0,38,0.00,,,0.00,weatherlink.com 1.10,2013-01-22 21:20:00,
2013-01-22 16:35:00,17.2,-3.0,30.04,West,271,12.0,12.0,40,0.00,,,0.00,weatherlink.com 1.10,2013-01-22 21:35:00,
2013-01-22 16:50:00,16.6,-3.0,30.05,SW,215,4.0,11.0,41,0.00,,,0.00,weatherlink.com 1.10,2013-01-22 21:50:00,
2013-01-22 17:20:00,16.1,-3.0,30.06,SSW,210,3.0,7.0,42,0.00,,,0.00,weatherlink.com 1.10,2013-01-22 22:20:00,
2013-01-22 17:35:00,15.9,-4.0,30.07,SE,126,1.0,11.0,42,0.00,,,0.00,weatherlink.com 1.10,2013-01-22 22:35:00,
2013-01-22 17:51:00,15.8,-4.0,30.08,NW,315,3.0,12.0,41,0.00,,,0.00,weatherlink.com 1.10,2013-01-22 22:51:00,
2013-01-22 18:06:00,15.5,-4.0,30.08,SW,224,2.0,11.0,41,0.00,,,0.00,weatherlink.com 1.10,2013-01-22 23:06:00,
2013-01-22 18:21:00,15.1,-4.0,30.09,West,261,0.0,4.0,43,0.00,,,0.00,weatherlink.com 1.10,2013-01-22 23:21:00,
2013-01-22 18:36:00,14.9,-4.0,30.09,West,273,4.0,10.0,43,0.00,,,0.00,weatherlink.com 1.10,2013-01-22 23:36:00,
2013-01-22 19:06:00,14.9,-4.0,30.11,SSE,155,3.0,12.0,43,0.00,,,0.00,weatherlink.com 1.10,2013-01-23 00:06:00,
2013-01-22 19:21:00,14.6,-4.0,30.11,SSE,160,3.0,7.0,44,0.00,,,0.00,weatherlink.com 1.10,2013-01-23 00:21:00,
2013-01-22 19:36:00,14.4,-4.0,30.12,SW,220,8.0,12.0,45,0.00,,,0.00,weatherlink.com 1.10,2013-01-23 00:36:00,
2013-01-22 19:51:00,14.3,-2.0,30.12,West,262,5.0,8.0,48,0.00,,,0.00,weatherlink.com 1.10,2013-01-23 00:51:00,
2013-01-22 20:06:00,14.1,-2.0,30.13,West,262,2.0,7.0,49,0.00,,,0.00,weatherlink.com 1.10,2013-01-23 01:06:00,
2013-01-22 20:21:00,13.9,-1.0,30.13,SW,226,4.0,9.0,51,0.00,,,0.00,weatherlink.com 1.10,2013-01-23 01:21:00,
2013-01-22 20:36:00,13.7,-2.0,30.13,SW,229,3.0,8.0,51,0.00,,,0.00,weatherlink.com 1.10,2013-01-23 01:36:00,
2013-01-22 20:52:00,13.5,-2.0,30.13,West,262,2.0,7.0,51,0.00,,,0.00,weatherlink.com 1.10,2013-01-23 01:52:00,
2013-01-22 21:06:00,13.4,-2.0,30.14,West,270,7.0,10.0,51,0.00,,,0.00,weatherlink.com 1.10,2013-01-23 02:06:00,
2013-01-22 21:22:00,13.2,-2.0,30.14,West,270,1.0,6.0,51,0.00,,,0.00,weatherlink.com 1.10,2013-01-23 02:22:00,
2013-01-22 21:37:00,13.1,-3.0,30.15,WSW,256,3.0,9.0,49,0.00,,,0.00,weatherlink.com 1.10,2013-01-23 02:37:00,
2013-01-22 21:52:00,12.9,-3.0,30.15,West,271,2.0,9.0,49,0.00,,,0.00,weatherlink.com 1.10,2013-01-23 02:52:00,
2013-01-22 22:07:00,12.6,-3.0,30.16,SW,221,1.0,9.0,49,0.00,,,0.00,weatherlink.com 1.10,2013-01-23 03:07:00,
2013-01-22 22:22:00,12.4,-4.0,30.16,SW,229,1.0,8.0,48,0.00,,,0.00,weatherlink.com 1.10,2013-01-23 03:22:00,
2013-01-22 22:37:00,12.1,-4.0,30.16,West,262,5.0,10.0,49,0.00,,,0.00,weatherlink.com 1.10,2013-01-23 03:37:00,
2013-01-22 22:52:00,11.7,-3.0,30.16,WSW,245,3.0,6.0,51,0.00,,,0.00,weatherlink.com 1.10,2013-01-23 03:52:00,
2013-01-22 23:07:00,11.5,-4.0,30.16,WSW,247,2.0,7.0,49,0.00,,,0.00,weatherlink.com 1.10,2013-01-23 04:07:00,
2013-01-22 23:22:00,11.5,-5.0,30.16,SW,228,1.0,7.0,47,0.00,,,0.00,weatherlink.com 1.10,2013-01-23 04:22:00,
2013-01-22 23:37:00,11.2,-5.0,30.16,South,180,5.0,8.0,48,0.00,,,0.00,weatherlink.com 1.10,2013-01-23 04:37:00,
2013-01-22 23:52:00,11.2,-6.0,30.17,WNW,291,5.0,7.0,47,0.00,,,0.00,weatherlink.com 1.10,2013-01-23 04:52:00,